createdAt,value
2022-10-05T00:00:36.811Z,21.11
2022-10-05T00:03:06.940Z,21.11
2022-10-05T00:05:34.983Z,21.13
2022-10-05T00:08:13.116Z,21.13
2022-10-05T00:10:42.761Z,21.13
2022-10-05T00:13:14.401Z,21.12
2022-10-05T00:15:42.456Z,21.14
2022-10-05T00:18:13.636Z,21.11
2022-10-05T00:20:41.672Z,21.13
2022-10-05T00:23:12.373Z,21.12
2022-10-05T00:25:40.342Z,21.11
2022-10-05T00:28:16.304Z,21.13
2022-10-05T00:30:44.190Z,21.12
2022-10-05T00:33:12.094Z,21.13
2022-10-05T00:35:40.004Z,21.15
2022-10-05T00:38:07.927Z,20.86
2022-10-05T00:40:44.706Z,21.11
2022-10-05T00:43:31.810Z,21.13
2022-10-05T00:46:02.009Z,21.13
2022-10-05T00:48:33.756Z,21.18
2022-10-05T00:51:16.293Z,21.17
2022-10-05T00:53:45.854Z,21.18
2022-10-05T00:56:20.780Z,21.20
2022-10-05T00:58:59.947Z,21.23
2022-10-05T01:01:29.990Z,21.27
2022-10-05T01:04:00.889Z,21.28
2022-10-05T01:06:32.348Z,21.27
2022-10-05T01:09:05.326Z,21.26
2022-10-05T01:11:36.567Z,21.29
2022-10-05T01:14:09.181Z,21.28
2022-10-05T01:16:41.079Z,21.27
2022-10-05T01:19:14.070Z,21.23
2022-10-05T01:21:44.218Z,21.12
2022-10-05T01:24:36.858Z,21.23
2022-10-05T01:27:12.817Z,21.21
2022-10-05T01:29:44.891Z,21.19
2022-10-05T01:32:15.809Z,21.22
2022-10-05T01:34:45.072Z,21.22
2022-10-05T01:37:15.980Z,21.23
2022-10-05T01:39:47.444Z,21.27
2022-10-05T01:42:18.953Z,21.25
2022-10-05T01:44:51.340Z,21.27
2022-10-05T01:47:22.623Z,21.26
2022-10-05T01:49:56.148Z,21.25
2022-10-05T01:52:29.545Z,21.24
2022-10-05T01:55:05.736Z,21.23
2022-10-05T01:57:38.934Z,20.98
2022-10-05T02:00:09.388Z,21.23
2022-10-05T02:02:38.788Z,21.20
2022-10-05T02:05:08.268Z,21.22
2022-10-05T02:07:38.281Z,21.18
2022-10-05T02:10:09.165Z,21.18
2022-10-05T02:12:38.757Z,21.18
2022-10-05T02:15:12.121Z,21.16
2022-10-05T02:17:41.524Z,21.17
2022-10-05T02:20:11.843Z,21.17
2022-10-05T02:22:41.115Z,21.21
2022-10-05T02:25:10.171Z,21.21
2022-10-05T02:27:48.076Z,21.23
2022-10-05T02:30:20.230Z,21.20
2022-10-05T02:32:52.507Z,21.19
2022-10-05T02:35:21.093Z,21.20
2022-10-05T02:37:57.889Z,21.20
2022-10-05T02:40:33.597Z,21.20
2022-10-05T02:43:04.618Z,21.16
2022-10-05T02:45:41.573Z,21.18
2022-10-05T02:48:12.481Z,21.16
2022-10-05T02:50:51.744Z,21.18
2022-10-05T02:53:25.589Z,21.17
2022-10-05T02:55:59.436Z,21.18
2022-10-05T02:58:29.266Z,21.15
2022-10-05T03:01:02.343Z,21.17
2022-10-05T03:03:33.281Z,21.13
2022-10-05T03:06:03.464Z,21.21
2022-10-05T03:08:34.766Z,21.17
2022-10-05T03:11:06.308Z,21.21
2022-10-05T03:13:39.384Z,21.23
2022-10-05T03:16:27.254Z,21.22
2022-10-05T03:19:02.318Z,21.24
2022-10-05T03:21:39.664Z,21.23
2022-10-05T03:24:18.225Z,21.20
2022-10-05T03:26:49.033Z,21.21
2022-10-05T03:29:24.473Z,21.21
2022-10-05T03:31:59.822Z,21.20
2022-10-05T03:34:31.049Z,21.20
2022-10-05T03:37:03.077Z,21.16
2022-10-05T03:39:33.886Z,21.18
2022-10-05T03:42:05.188Z,21.19
2022-10-05T03:44:43.163Z,21.15
2022-10-05T03:47:20.952Z,21.20
2022-10-05T03:50:04.539Z,21.18
2022-10-05T03:52:36.442Z,21.22
2022-10-05T03:55:08.526Z,21.18
2022-10-05T03:57:38.195Z,21.18
2022-10-05T04:00:07.847Z,21.21
2022-10-05T04:02:38.526Z,21.18
2022-10-05T04:05:07.956Z,21.20
2022-10-05T04:07:39.726Z,21.21
2022-10-05T04:10:11.148Z,21.18
2022-10-05T04:12:40.899Z,21.22
2022-10-05T04:15:12.333Z,21.22
2022-10-05T04:17:46.538Z,21.21
2022-10-05T04:20:17.932Z,21.22
2022-10-05T04:22:50.073Z,21.13
2022-10-05T04:25:18.979Z,21.24
2022-10-05T04:27:48.498Z,21.26
2022-10-05T04:30:17.519Z,21.24
2022-10-05T04:32:49.113Z,21.19
2022-10-05T04:35:39.374Z,21.28
2022-10-05T04:38:14.426Z,21.27
2022-10-05T04:40:49.433Z,21.29
2022-10-05T04:43:20.934Z,21.32
2022-10-05T04:46:00.556Z,21.29
2022-10-05T04:48:44.880Z,21.31
2022-10-05T04:51:22.062Z,21.20
2022-10-05T04:53:55.404Z,21.26
2022-10-05T04:56:28.239Z,21.18
2022-10-05T04:59:07.882Z,21.30
2022-10-05T05:01:45.408Z,21.32
2022-10-05T05:04:29.564Z,21.30
2022-10-05T05:07:00.053Z,21.30
2022-10-05T05:10:03.042Z,21.31
2022-10-05T05:12:35.025Z,21.29
2022-10-05T05:15:27.188Z,21.28
2022-10-05T05:18:34.228Z,21.26
2022-10-05T05:21:07.559Z,20.97
2022-10-05T05:23:39.182Z,21.21
2022-10-05T05:26:09.313Z,21.20
2022-10-05T05:28:41.059Z,21.20
2022-10-05T05:31:12.052Z,21.20
2022-10-05T05:33:44.574Z,21.19
2022-10-05T05:36:35.370Z,21.16
2022-10-05T05:39:15.559Z,21.21
2022-10-05T05:41:45.893Z,21.19
2022-10-05T05:44:18.564Z,21.20
2022-10-05T05:47:05.146Z,21.19
2022-10-05T05:49:51.055Z,21.20
2022-10-05T05:52:21.555Z,21.10
2022-10-05T05:54:52.513Z,21.18
2022-10-05T05:57:23.050Z,21.12
2022-10-05T05:59:57.576Z,21.20
2022-10-05T06:02:31.719Z,21.18
2022-10-05T06:05:09.885Z,21.17
2022-10-05T06:07:39.259Z,21.25
2022-10-05T06:10:14.681Z,21.20
2022-10-05T06:12:43.455Z,21.27
2022-10-05T06:15:26.745Z,21.32
2022-10-05T06:17:55.790Z,21.37
2022-10-05T06:20:26.772Z,21.30
2022-10-05T06:22:56.182Z,21.40
2022-10-05T06:25:28.854Z,21.45
2022-10-05T06:28:05.261Z,21.46
2022-10-05T06:30:38.812Z,21.47
2022-10-05T06:33:11.209Z,21.51
2022-10-05T06:35:46.031Z,21.55
2022-10-05T06:38:39.396Z,21.41
2022-10-05T06:41:12.415Z,21.45
2022-10-05T06:43:54.095Z,21.40
2022-10-05T06:46:23.954Z,21.37
2022-10-05T06:49:05.958Z,21.43
2022-10-05T06:51:37.311Z,21.40
2022-10-05T06:54:10.624Z,21.42
2022-10-05T06:56:41.020Z,21.42
2022-10-05T06:59:10.935Z,21.43
2022-10-05T07:01:45.866Z,21.40
2022-10-05T07:04:24.287Z,21.41
2022-10-05T07:06:54.079Z,21.39
2022-10-05T07:09:28.275Z,21.36
2022-10-05T07:12:05.540Z,21.31
2022-10-05T07:14:44.647Z,21.35
2022-10-05T07:17:22.989Z,21.34
2022-10-05T07:19:55.090Z,21.28
2022-10-05T07:22:55.319Z,21.27
2022-10-05T07:25:25.608Z,21.20
2022-10-05T07:27:56.150Z,21.21
2022-10-05T07:30:24.461Z,21.23
2022-10-05T07:32:59.783Z,21.16
2022-10-05T07:35:53.013Z,21.09
2022-10-05T07:38:24.029Z,21.07
2022-10-05T07:40:55.557Z,21.11
2022-10-05T07:43:57.520Z,21.06
2022-10-05T07:46:23.823Z,21.02
2022-10-05T07:49:00.073Z,21.05
2022-10-05T07:51:34.937Z,20.97
2022-10-05T07:54:11.302Z,21.10
2022-10-05T07:56:43.471Z,21.11
2022-10-05T07:59:15.817Z,21.06
2022-10-05T08:01:46.054Z,21.08
2022-10-05T08:04:15.805Z,21.08
2022-10-05T08:06:51.146Z,21.00
2022-10-05T08:09:29.584Z,21.05
2022-10-05T08:12:02.041Z,21.10
2022-10-05T08:14:33.663Z,21.10
2022-10-05T08:17:02.954Z,21.13
2022-10-05T08:19:33.465Z,21.14
2022-10-05T08:22:04.227Z,21.12
2022-10-05T08:24:39.985Z,21.09
2022-10-05T08:27:16.218Z,21.09
2022-10-05T08:29:48.407Z,21.04
2022-10-05T08:32:19.454Z,21.07
2022-10-05T08:34:49.369Z,21.02
2022-10-05T08:37:20.018Z,20.99
2022-10-05T08:39:51.981Z,21.01
2022-10-05T08:42:33.002Z,21.01
2022-10-05T08:45:33.676Z,21.01
2022-10-05T08:48:34.713Z,21.04
2022-10-05T08:51:33.001Z,21.04
2022-10-05T08:54:41.992Z,20.97
2022-10-05T08:57:27.905Z,20.78
2022-10-05T09:00:11.517Z,20.49
2022-10-05T09:02:50.583Z,20.12
2022-10-05T09:05:33.919Z,19.94
2022-10-05T09:08:26.961Z,19.83
2022-10-05T09:11:04.084Z,19.67
2022-10-05T09:14:05.904Z,19.57
2022-10-05T09:16:53.741Z,19.52
2022-10-05T09:19:43.860Z,19.53
2022-10-05T09:22:16.018Z,19.53
2022-10-05T09:24:56.467Z,19.51
2022-10-05T09:27:35.143Z,19.41
2022-10-05T09:30:15.446Z,19.61
2022-10-05T09:33:10.540Z,19.57
2022-10-05T09:36:10.602Z,19.54
2022-10-05T09:38:50.359Z,19.50
2022-10-05T09:41:59.569Z,19.57
2022-10-05T09:44:51.459Z,19.64
2022-10-05T09:47:37.596Z,19.57
2022-10-05T09:50:41.684Z,19.56
2022-10-05T09:53:28.009Z,19.48
2022-10-05T09:56:14.717Z,19.42
2022-10-05T09:59:07.898Z,19.36
2022-10-05T10:01:42.761Z,19.32
2022-10-05T10:04:24.765Z,19.22
2022-10-05T10:07:26.857Z,19.12
2022-10-05T10:10:07.816Z,19.05
2022-10-05T10:12:43.924Z,19.09
2022-10-05T10:15:50.199Z,19.20
2022-10-05T10:18:28.718Z,19.12
2022-10-05T10:21:22.786Z,19.27
2022-10-05T10:24:00.355Z,19.10
2022-10-05T10:26:55.649Z,19.12
2022-10-05T10:30:03.527Z,19.11
2022-10-05T10:32:53.148Z,19.12
2022-10-05T10:35:31.841Z,19.13
2022-10-05T10:38:16.577Z,19.08
2022-10-05T10:40:52.110Z,19.07
2022-10-05T10:43:39.562Z,18.96
2022-10-05T10:46:11.140Z,19.14
2022-10-05T10:48:58.372Z,19.23
2022-10-05T10:51:39.661Z,19.33
2022-10-05T10:54:30.207Z,19.38
2022-10-05T10:57:03.190Z,19.53
2022-10-05T11:00:06.690Z,19.54
2022-10-05T11:02:42.428Z,19.75
2022-10-05T11:05:30.993Z,19.89
2022-10-05T11:08:21.260Z,20.07
2022-10-05T11:11:15.327Z,20.11
2022-10-05T11:14:21.900Z,20.09
2022-10-05T11:17:24.240Z,20.14
2022-10-05T11:20:25.697Z,20.15
2022-10-05T11:22:58.609Z,20.18
2022-10-05T11:25:46.370Z,20.21
2022-10-05T11:28:34.764Z,20.21
2022-10-05T11:31:41.859Z,20.22
2022-10-05T11:34:43.887Z,20.29
2022-10-05T11:37:42.655Z,20.42
2022-10-05T11:40:55.320Z,20.50
2022-10-05T11:43:50.339Z,20.53
2022-10-05T11:46:20.409Z,20.44
2022-10-05T11:49:00.400Z,20.52
2022-10-05T11:51:42.251Z,20.46
2022-10-05T11:55:09.697Z,20.52
2022-10-05T11:57:39.828Z,20.62
2022-10-05T12:00:13.688Z,20.78
2022-10-05T12:02:53.037Z,20.94
2022-10-05T12:05:23.009Z,20.99
2022-10-05T12:07:58.505Z,20.97
2022-10-05T12:10:32.787Z,20.96
2022-10-05T12:13:11.106Z,20.87
2022-10-05T12:15:44.849Z,20.71
2022-10-05T12:18:14.609Z,20.28
2022-10-05T12:20:47.038Z,19.59
2022-10-05T12:23:17.550Z,18.92
2022-10-05T12:25:46.464Z,18.63
2022-10-05T12:28:16.414Z,18.43
2022-10-05T12:31:04.659Z,18.35
2022-10-05T12:33:34.933Z,18.43
2022-10-05T12:36:04.433Z,18.53
2022-10-05T12:38:35.653Z,18.62
2022-10-05T12:41:07.550Z,18.71
2022-10-05T12:43:40.562Z,18.73
2022-10-05T12:46:17.784Z,18.88
2022-10-05T12:48:56.147Z,18.96
2022-10-05T12:51:28.863Z,19.13
2022-10-05T12:53:58.211Z,19.18
2022-10-05T12:56:35.251Z,19.69
2022-10-05T12:59:06.002Z,19.61
2022-10-05T13:01:39.841Z,19.70
2022-10-05T13:04:18.514Z,20.34
2022-10-05T13:07:01.492Z,21.08
2022-10-05T13:09:30.737Z,21.64
2022-10-05T13:12:00.509Z,21.85
2022-10-05T13:14:39.221Z,22.06
2022-10-05T13:17:11.298Z,22.08
2022-10-05T13:19:40.776Z,21.88
2022-10-05T13:22:23.408Z,21.05
2022-10-05T13:25:00.034Z,20.32
2022-10-05T13:27:28.831Z,20.00
2022-10-05T13:29:59.881Z,19.83
2022-10-05T13:32:32.161Z,19.94
2022-10-05T13:35:11.281Z,19.98
2022-10-05T13:37:43.318Z,20.02
2022-10-05T13:40:18.705Z,20.10
2022-10-05T13:42:48.895Z,20.16
2022-10-05T13:45:19.100Z,20.26
2022-10-05T13:47:55.914Z,20.42
2022-10-05T13:50:29.716Z,20.62
2022-10-05T13:53:03.954Z,20.83
2022-10-05T13:55:38.152Z,21.08
2022-10-05T13:58:07.482Z,20.92
2022-10-05T14:00:38.161Z,21.09
2022-10-05T14:03:08.559Z,21.39
2022-10-05T14:05:38.185Z,21.45
2022-10-05T14:08:17.027Z,22.06
2022-10-05T14:10:46.132Z,22.42
2022-10-05T14:13:28.474Z,22.70
2022-10-05T14:16:18.379Z,23.00
2022-10-05T14:18:56.993Z,23.33
2022-10-05T14:21:26.215Z,23.76
2022-10-05T14:23:54.164Z,23.82
2022-10-05T14:26:33.021Z,24.01
2022-10-05T14:29:02.405Z,24.12
2022-10-05T14:31:32.977Z,24.02
2022-10-05T14:34:27.368Z,24.02
2022-10-05T14:36:59.507Z,23.84
2022-10-05T14:39:29.028Z,23.85
2022-10-05T14:41:56.896Z,23.82
2022-10-05T14:44:30.245Z,23.62
2022-10-05T14:47:03.733Z,23.69
2022-10-05T14:49:37.140Z,23.28
2022-10-05T14:52:29.073Z,22.94
2022-10-05T14:55:00.919Z,22.77
2022-10-05T14:57:32.129Z,23.16
2022-10-05T15:00:11.557Z,23.51
2022-10-05T15:03:16.237Z,23.71
2022-10-05T15:05:47.678Z,23.81
2022-10-05T15:08:23.548Z,23.79
2022-10-05T15:10:53.390Z,23.63
2022-10-05T15:13:22.540Z,23.40
2022-10-05T15:15:53.988Z,22.97
2022-10-05T15:18:35.131Z,22.39
2022-10-05T15:21:13.664Z,22.15
2022-10-05T15:23:45.773Z,21.82
2022-10-05T15:26:24.196Z,21.85
2022-10-05T15:28:55.046Z,21.81
2022-10-05T15:31:26.496Z,21.77
2022-10-05T15:33:56.717Z,22.08
2022-10-05T15:36:26.288Z,22.31
2022-10-05T15:39:01.952Z,22.15
2022-10-05T15:41:41.711Z,21.83
2022-10-05T15:44:11.691Z,21.53
2022-10-05T15:46:42.289Z,21.38
2022-10-05T15:49:19.828Z,21.28
2022-10-05T15:51:55.744Z,21.31
2022-10-05T15:54:42.803Z,21.25
2022-10-05T15:57:16.312Z,21.14
2022-10-05T15:59:48.486Z,21.05
2022-10-05T16:02:19.108Z,20.89
2022-10-05T16:04:50.204Z,20.84
2022-10-05T16:07:39.063Z,20.66
2022-10-05T16:10:12.190Z,20.46
2022-10-05T16:12:45.498Z,20.44
2022-10-05T16:15:18.753Z,20.40
2022-10-05T16:18:06.513Z,20.33
2022-10-05T16:20:41.048Z,20.29
2022-10-05T16:23:14.313Z,20.30
2022-10-05T16:25:51.597Z,20.33
2022-10-05T16:28:25.026Z,20.33
2022-10-05T16:30:58.750Z,20.40
2022-10-05T16:33:31.765Z,20.30
2022-10-05T16:36:03.649Z,20.25
2022-10-05T16:38:38.408Z,20.06
2022-10-05T16:41:09.630Z,20.00
2022-10-05T16:43:44.940Z,19.94
2022-10-05T16:46:16.034Z,19.87
2022-10-05T16:48:49.849Z,19.78
2022-10-05T16:51:24.137Z,19.67
2022-10-05T16:54:00.130Z,19.69
2022-10-05T16:56:29.970Z,19.66
2022-10-05T16:59:02.022Z,19.64
2022-10-05T17:01:42.252Z,19.65
2022-10-05T17:04:18.513Z,19.55
2022-10-05T17:06:59.756Z,19.70
2022-10-05T17:10:05.681Z,19.62
2022-10-05T17:12:51.387Z,19.44
2022-10-05T17:15:33.536Z,19.39
2022-10-05T17:18:28.204Z,19.29
2022-10-05T17:21:14.630Z,19.18
2022-10-05T17:23:54.618Z,19.09
2022-10-05T17:26:54.513Z,18.94
2022-10-05T17:29:27.980Z,18.94
2022-10-05T17:32:12.563Z,19.05
2022-10-05T17:34:40.845Z,19.08
2022-10-05T17:37:20.342Z,19.12
2022-10-05T17:39:50.283Z,19.14
2022-10-05T17:42:52.669Z,19.13
2022-10-05T17:45:52.887Z,18.85
2022-10-05T17:48:41.344Z,18.41
2022-10-05T17:51:34.655Z,18.13
2022-10-05T17:54:40.652Z,17.89
2022-10-05T17:57:18.935Z,17.83
2022-10-05T17:59:58.306Z,17.85
2022-10-05T18:02:40.587Z,17.93
2022-10-05T18:05:25.751Z,17.97
2022-10-05T18:08:21.309Z,18.05
2022-10-05T18:11:07.685Z,18.09
2022-10-05T18:13:36.139Z,18.19
2022-10-05T18:16:05.598Z,18.26
2022-10-05T18:18:54.679Z,18.42
2022-10-05T18:21:32.284Z,18.47
2022-10-05T18:24:27.801Z,18.53
2022-10-05T18:27:02.805Z,18.62
2022-10-05T18:29:57.895Z,18.74
2022-10-05T18:32:31.070Z,18.80
2022-10-05T18:35:02.235Z,18.85
2022-10-05T18:37:46.163Z,18.87
2022-10-05T18:40:23.871Z,18.83
2022-10-05T18:42:54.876Z,18.75
2022-10-05T18:45:25.266Z,18.69
2022-10-05T18:48:02.801Z,18.65
2022-10-05T18:50:33.222Z,18.60
2022-10-05T18:53:08.510Z,18.51
2022-10-05T18:55:37.655Z,18.56
2022-10-05T18:58:27.256Z,18.60
2022-10-05T19:01:22.640Z,18.61
2022-10-05T19:03:58.439Z,18.61
2022-10-05T19:06:27.496Z,18.59
2022-10-05T19:09:00.724Z,18.61
2022-10-05T19:11:31.305Z,18.58
2022-10-05T19:14:02.086Z,18.58
2022-10-05T19:16:41.931Z,18.58
2022-10-05T19:19:29.536Z,18.50
2022-10-05T19:22:03.982Z,18.44
2022-10-05T19:24:48.718Z,18.47
2022-10-05T19:27:20.912Z,18.42
2022-10-05T19:30:05.150Z,18.42
2022-10-05T19:32:37.592Z,18.40
2022-10-05T19:35:15.066Z,18.41
2022-10-05T19:37:47.984Z,18.42
2022-10-05T19:40:19.049Z,18.37
2022-10-05T19:42:57.448Z,18.44
2022-10-05T19:45:25.846Z,18.47
2022-10-05T19:48:00.566Z,18.50
2022-10-05T19:50:30.860Z,18.57
2022-10-05T19:53:04.084Z,18.59
2022-10-05T19:55:41.679Z,18.62
2022-10-05T19:58:20.830Z,18.62
2022-10-05T20:00:58.056Z,18.64
2022-10-05T20:03:29.187Z,18.68
2022-10-05T20:05:59.709Z,18.70
2022-10-05T20:08:31.901Z,18.74
2022-10-05T20:11:13.765Z,18.77
2022-10-05T20:13:42.499Z,18.70
2022-10-05T20:16:46.662Z,18.62
2022-10-05T20:19:51.177Z,18.68
2022-10-05T20:22:28.100Z,18.63
2022-10-05T20:24:57.007Z,18.61
2022-10-05T20:27:48.027Z,18.33
2022-10-05T20:30:17.165Z,18.64
2022-10-05T20:32:45.737Z,18.67
2022-10-05T20:35:15.798Z,18.70
2022-10-05T20:37:45.133Z,18.72
2022-10-05T20:40:14.853Z,18.68
2022-10-05T20:42:42.810Z,18.65
2022-10-05T20:45:11.932Z,18.61
2022-10-05T20:47:40.480Z,18.50
2022-10-05T20:50:10.153Z,18.40
2022-10-05T20:52:38.366Z,18.28
2022-10-05T20:55:08.939Z,18.26
2022-10-05T20:57:38.599Z,18.26
2022-10-05T21:00:07.787Z,18.28
2022-10-05T21:02:36.086Z,18.31
2022-10-05T21:05:04.971Z,18.31
2022-10-05T21:07:34.162Z,18.30
2022-10-05T21:10:03.097Z,18.29
2022-10-05T21:12:32.779Z,18.29
2022-10-05T21:15:01.565Z,18.29
2022-10-05T21:17:29.496Z,18.30
2022-10-05T21:19:57.561Z,18.29
2022-10-05T21:22:25.457Z,18.28
2022-10-05T21:24:55.247Z,18.27
2022-10-05T21:27:23.808Z,18.23
2022-10-05T21:29:53.115Z,18.21
2022-10-05T21:32:20.961Z,18.22
2022-10-05T21:34:48.829Z,18.19
2022-10-05T21:37:16.698Z,18.19
2022-10-05T21:39:45.787Z,18.16
2022-10-05T21:42:13.700Z,18.07
2022-10-05T21:44:41.617Z,18.12
2022-10-05T21:47:10.940Z,18.13
2022-10-05T21:49:38.879Z,18.13
2022-10-05T21:52:06.769Z,18.11
2022-10-05T21:54:35.137Z,18.10
2022-10-05T21:57:03.240Z,18.09
2022-10-05T21:59:32.678Z,18.05
2022-10-05T22:02:00.820Z,18.07
2022-10-05T22:04:30.300Z,18.05
2022-10-05T22:06:58.218Z,18.02
2022-10-05T22:09:26.159Z,17.98
2022-10-05T22:11:54.988Z,17.92
2022-10-05T22:14:23.032Z,17.96
2022-10-05T22:16:50.993Z,17.97
2022-10-05T22:19:20.183Z,17.93
2022-10-05T22:21:49.494Z,17.91
2022-10-05T22:24:17.381Z,17.91
2022-10-05T22:26:45.826Z,17.92
2022-10-05T22:29:13.795Z,17.93
2022-10-05T22:31:42.213Z,17.96
2022-10-05T22:34:10.266Z,18.00
2022-10-05T22:36:38.429Z,18.04
2022-10-05T22:39:07.713Z,18.08
2022-10-05T22:41:35.611Z,18.10
2022-10-05T22:44:04.317Z,18.14
2022-10-05T22:46:32.600Z,18.15
2022-10-05T22:49:00.505Z,18.16
2022-10-05T22:51:28.445Z,18.18
2022-10-05T22:53:56.310Z,18.20
2022-10-05T22:56:25.607Z,18.21
2022-10-05T22:58:53.511Z,18.23
2022-10-05T23:01:21.434Z,18.24
2022-10-05T23:03:49.522Z,18.24
2022-10-05T23:06:18.412Z,18.25
2022-10-05T23:08:46.514Z,18.24
2022-10-05T23:11:15.233Z,18.25
2022-10-05T23:13:44.669Z,18.20
2022-10-05T23:16:13.273Z,18.17
2022-10-05T23:18:41.363Z,18.13
2022-10-05T23:21:09.972Z,18.08
2022-10-05T23:23:38.244Z,18.05
2022-10-05T23:26:06.478Z,18.01
2022-10-05T23:28:34.656Z,18.05
2022-10-05T23:31:04.775Z,18.06
2022-10-05T23:33:32.707Z,18.10
2022-10-05T23:36:00.702Z,18.14
2022-10-05T23:38:28.913Z,18.22
2022-10-05T23:40:58.611Z,18.26
2022-10-05T23:43:26.967Z,18.27
2022-10-05T23:45:55.002Z,18.26
2022-10-05T23:48:25.528Z,18.25
2022-10-05T23:50:53.793Z,18.24
2022-10-05T23:53:22.008Z,18.19
2022-10-05T23:55:51.053Z,18.15
2022-10-05T23:58:19.154Z,18.07
